Time;durP1;ratioP1;P1;durP2;ratioP2;P2;SDS_P1;SDS_P2;PMS_P1;PMS_P2;Temp;Humidity;BMP_temperature;BMP_pressure;BME280_temperature;BME280_humidity;BME280_pressure;Samples;Min_cycle;Max_cycle;Signal;HPM_P1;HPM_P2
2022/08/02 00:01:28;;;;;;;4.63;2.00;;;11.40;99.90;;;;;;5027433;28;20422;-60
2022/08/02 00:03:53;;;;;;;4.88;1.90;;;11.40;99.90;;;;;;5028236;28;20014;-61
2022/08/02 00:06:19;;;;;;;2.50;1.58;;;11.40;99.90;;;;;;5028607;28;20033;-60
2022/08/02 00:08:45;;;;;;;5.53;1.75;;;11.40;99.90;;;;;;5027985;28;20025;-60
2022/08/02 00:11:10;;;;;;;2.75;1.50;;;11.30;99.90;;;;;;5027696;28;20033;-61
2022/08/02 00:13:36;;;;;;;3.90;2.00;;;11.30;99.90;;;;;;5038500;28;20041;-61
2022/08/02 00:16:02;;;;;;;6.82;1.95;;;11.30;99.90;;;;;;5023664;28;20024;-60
2022/08/02 00:18:27;;;;;;;7.05;2.17;;;11.20;99.90;;;;;;5043672;28;20021;-60
2022/08/02 00:20:53;;;;;;;2.50;1.60;;;11.20;99.90;;;;;;5019179;28;20083;-60
2022/08/02 00:23:19;;;;;;;3.97;1.60;;;11.20;99.90;;;;;;5027073;28;20472;-59
2022/08/02 00:25:44;;;;;;;5.32;1.80;;;11.20;99.90;;;;;;5042781;28;20514;-61
2022/08/02 00:28:10;;;;;;;2.38;1.88;;;11.10;99.90;;;;;;5027871;28;20040;-61
2022/08/02 00:30:36;;;;;;;5.38;1.70;;;11.10;99.90;;;;;;5038026;28;20443;-59
2022/08/02 00:33:04;;;;;;;3.42;2.15;;;11.10;99.90;;;;;;5025702;28;20032;-60
2022/08/02 00:35:30;;;;;;;2.72;2.10;;;11.10;99.90;;;;;;5023069;28;20321;-61
2022/08/02 00:37:55;;;;;;;6.28;1.98;;;11.10;99.90;;;;;;5026014;28;20013;-58
2022/08/02 00:40:23;;;;;;;2.70;1.85;;;11.10;99.90;;;;;;5023359;28;20026;-61
2022/08/02 00:43:08;;;;;;;4.85;1.50;;;11.00;99.90;;;;;;5024408;28;20496;-61
2022/08/02 00:45:36;;;;;;;2.70;2.30;;;11.00;99.90;;;;;;5026075;28;20037;-63
2022/08/02 00:48:04;;;;;;;2.45;1.80;;;11.00;99.90;;;;;;5031465;28;20121;-59
2022/08/02 00:50:30;;;;;;;3.53;2.00;;;11.00;99.90;;;;;;5031906;28;20025;-61
2022/08/02 00:52:56;;;;;;;3.35;1.45;;;10.90;99.90;;;;;;5023188;28;20040;-61
2022/08/02 00:55:22;;;;;;;2.33;1.73;;;10.90;99.90;;;;;;5031985;28;20025;-59
2022/08/02 00:57:48;;;;;;;3.65;2.13;;;10.80;99.90;;;;;;5029292;28;20038;-61
2022/08/02 01:00:14;;;;;;;4.70;2.10;;;10.80;99.90;;;;;;5028414;28;20039;-61
2022/08/02 01:02:40;;;;;;;4.45;1.70;;;10.80;99.90;;;;;;5028109;28;20033;-61
2022/08/02 01:05:06;;;;;;;3.90;1.90;;;10.70;99.90;;;;;;5030539;28;20056;-60
2022/08/02 01:07:31;;;;;;;3.60;1.77;;;10.70;99.90;;;;;;5030970;28;20051;-59
2022/08/02 01:09:59;;;;;;;2.83;1.98;;;10.70;99.90;;;;;;5031751;28;20033;-61
2022/08/02 01:12:24;;;;;;;3.53;2.20;;;10.60;99.90;;;;;;5039885;28;20025;-60
2022/08/02 01:14:52;;;;;;;5.32;2.05;;;10.60;99.90;;;;;;5029017;28;20029;-61
2022/08/02 01:17:33;;;;;;;4.13;2.10;;;10.60;99.90;;;;;;5031061;28;20376;-60
2022/08/02 01:20:07;;;;;;;4.60;2.33;;;10.50;99.90;;;;;;5030667;28;20026;-60
2022/08/02 01:23:04;;;;;;;4.40;2.20;;;10.40;99.90;;;;;;5030075;28;20503;-61
2022/08/02 01:25:41;;;;;;;2.28;1.80;;;10.50;99.90;;;;;;5023997;28;20124;-61
2022/08/02 01:28:25;;;;;;;3.38;2.00;;;10.40;99.90;;;;;;5045815;28;20087;-60
2022/08/02 01:30:56;;;;;;;4.47;2.22;;;10.50;99.90;;;;;;5023211;28;20032;-62
2022/08/02 01:33:23;;;;;;;6.38;2.83;;;10.40;99.90;;;;;;5029989;28;20443;-60
2022/08/02 01:35:53;;;;;;;4.82;2.17;;;10.40;99.90;;;;;;5029369;28;20033;-61
2022/08/02 01:38:34;;;;;;;3.92;2.10;;;10.50;99.90;;;;;;5020018;28;20101;-59
2022/08/02 01:41:01;;;;;;;5.30;1.88;;;10.40;99.90;;;;;;5025498;28;20096;-60
2022/08/02 01:43:30;;;;;;;1.63;1.48;;;10.40;99.90;;;;;;5043328;28;20108;-61
2022/08/02 01:45:56;;;;;;;4.53;2.55;;;10.40;99.90;;;;;;5028319;28;20372;-60
2022/08/02 01:48:24;;;;;;;3.15;2.10;;;10.30;99.90;;;;;;5044270;28;20025;-60
2022/08/02 01:50:52;;;;;;;6.57;2.40;;;10.30;99.90;;;;;;5029139;28;20029;-61
2022/08/02 01:53:19;;;;;;;5.25;1.85;;;10.20;99.90;;;;;;5027071;28;20037;-59
2022/08/02 01:55:48;;;;;;;1.95;1.52;;;10.20;99.90;;;;;;5029365;28;20067;-58
2022/08/02 01:58:18;;;;;;;3.67;2.08;;;10.20;99.90;;;;;;5028845;28;20030;-59
2022/08/02 02:00:45;;;;;;;4.65;1.80;;;10.10;99.90;;;;;;5069729;23;20131;-64
2022/08/02 02:03:20;;;;;;;3.17;2.10;;;10.10;99.90;;;;;;5041678;28;20028;-64
2022/08/02 02:05:48;;;;;;;6.00;2.22;;;10.10;99.90;;;;;;5050849;28;20024;-64
2022/08/02 02:08:17;;;;;;;4.63;2.15;;;10.10;99.90;;;;;;5046208;28;20028;-65
2022/08/02 02:10:44;;;;;;;4.43;1.90;;;10.10;99.90;;;;;;5032977;28;20527;-64
2022/08/02 02:13:16;;;;;;;3.58;2.38;;;10.10;99.90;;;;;;5024528;28;20116;-64
2022/08/02 02:15:49;;;;;;;2.85;2.10;;;10.10;99.90;;;;;;5044917;28;20029;-64
2022/08/02 02:18:20;;;;;;;4.78;2.13;;;10.00;99.90;;;;;;5022829;28;20021;-65
2022/08/02 02:20:46;;;;;;;3.78;2.40;;;10.00;99.90;;;;;;5029344;28;20017;-65
2022/08/02 02:23:12;;;;;;;5.13;2.65;;;10.00;99.90;;;;;;5028883;28;20017;-64
2022/08/02 02:25:40;;;;;;;3.83;2.50;;;10.00;99.90;;;;;;5025117;28;20113;-64
2022/08/02 02:28:16;;;;;;;4.57;2.58;;;10.00;99.90;;;;;;5028270;28;20384;-63
2022/08/02 02:30:47;;;;;;;9.38;2.83;;;10.00;99.90;;;;;;5024826;28;20038;-63
2022/08/02 02:33:15;;;;;;;3.35;2.00;;;10.00;99.90;;;;;;5027852;28;20030;-64
2022/08/02 02:35:42;;;;;;;7.38;2.67;;;10.00;99.90;;;;;;5027414;28;20117;-65
2022/08/02 02:38:12;;;;;;;5.95;2.53;;;10.00;99.90;;;;;;5025330;28;20029;-64
2022/08/02 02:40:39;;;;;;;6.93;2.53;;;10.00;99.90;;;;;;5029622;28;20389;-64
2022/08/02 02:43:06;;;;;;;3.97;2.13;;;10.00;99.90;;;;;;5029655;28;20060;-64
2022/08/02 02:45:33;;;;;;;3.70;2.50;;;9.90;99.90;;;;;;5021538;28;20067;-64
2022/08/02 02:48:00;;;;;;;5.82;2.40;;;9.90;99.90;;;;;;5030253;28;20048;-65
2022/08/02 02:50:26;;;;;;;3.65;2.53;;;9.90;99.90;;;;;;5044639;28;20034;-65
2022/08/02 02:52:53;;;;;;;3.97;2.47;;;9.90;99.90;;;;;;5026650;28;20021;-65
2022/08/02 02:55:18;;;;;;;6.22;2.80;;;9.90;99.90;;;;;;5029717;28;20025;-65
2022/08/02 02:57:45;;;;;;;4.57;2.40;;;9.80;99.90;;;;;;5029859;28;20075;-64
2022/08/02 03:00:12;;;;;;;4.50;2.78;;;9.80;99.90;;;;;;5029308;28;20028;-64
2022/08/02 03:02:40;;;;;;;4.72;2.17;;;9.70;99.90;;;;;;5025239;28;20499;-64
2022/08/02 03:05:07;;;;;;;4.82;2.63;;;9.70;99.90;;;;;;5029584;28;20032;-64
2022/08/02 03:07:33;;;;;;;3.90;2.30;;;9.70;99.90;;;;;;5028889;28;20029;-64
2022/08/02 03:10:00;;;;;;;4.57;2.65;;;9.70;99.90;;;;;;5029082;28;20100;-64
2022/08/02 03:12:26;;;;;;;3.53;2.15;;;9.60;99.90;;;;;;5043769;28;20071;-64
2022/08/02 03:14:53;;;;;;;4.63;2.40;;;9.60;99.90;;;;;;5027816;28;20025;-65
2022/08/02 03:17:19;;;;;;;3.75;2.28;;;9.60;99.90;;;;;;5029596;28;20488;-65
2022/08/02 03:19:45;;;;;;;5.15;2.67;;;9.60;99.90;;;;;;5024892;28;20123;-64
2022/08/02 03:22:10;;;;;;;4.88;2.47;;;9.70;99.90;;;;;;5025257;28;20378;-64
2022/08/02 03:24:37;;;;;;;7.47;2.20;;;9.70;99.90;;;;;;5024669;28;20496;-64
2022/08/02 03:27:03;;;;;;;3.20;2.30;;;9.70;99.90;;;;;;5027357;28;20041;-64
2022/08/02 03:29:28;;;;;;;2.30;2.05;;;9.70;99.90;;;;;;5023381;28;20029;-64
2022/08/02 03:31:54;;;;;;;2.10;1.83;;;9.60;99.90;;;;;;5027992;28;20073;-64
2022/08/02 03:34:21;;;;;;;7.30;2.38;;;9.70;99.90;;;;;;5029260;28;20057;-65
2022/08/02 03:36:50;;;;;;;5.68;2.28;;;9.60;99.90;;;;;;5026735;28;20029;-64
2022/08/02 03:39:18;;;;;;;2.92;1.90;;;9.70;99.90;;;;;;5019412;28;20395;-64
2022/08/02 03:41:45;;;;;;;6.10;2.50;;;9.70;99.90;;;;;;5028769;28;20143;-64
2022/08/02 03:44:12;;;;;;;4.78;2.78;;;9.70;99.90;;;;;;5028145;28;20025;-64
2022/08/02 03:46:40;;;;;;;4.97;2.42;;;9.70;99.90;;;;;;5029065;28;20120;-64
2022/08/02 03:49:07;;;;;;;3.88;2.65;;;9.80;99.90;;;;;;5028507;28;20060;-64
2022/08/02 03:51:34;;;;;;;4.65;2.17;;;9.70;99.90;;;;;;5026711;28;20032;-64
2022/08/02 03:54:01;;;;;;;3.22;2.08;;;9.80;99.90;;;;;;5025722;28;20020;-65
2022/08/02 03:56:28;;;;;;;3.67;1.90;;;9.70;99.90;;;;;;5021466;28;20555;-65
2022/08/02 03:59:11;;;;;;;2.47;1.70;;;9.80;99.90;;;;;;5027490;28;20036;-64
2022/08/02 04:01:37;;;;;;;4.80;2.70;;;9.80;99.90;;;;;;5022828;28;20032;-64
2022/08/02 04:04:04;;;;;;;4.18;2.60;;;9.90;99.90;;;;;;5025398;28;20025;-64
2022/08/02 04:06:30;;;;;;;3.92;1.73;;;9.90;99.90;;;;;;5028456;28;20025;-65
2022/08/02 04:08:55;;;;;;;5.63;2.25;;;9.90;99.90;;;;;;5027684;28;20569;-65
2022/08/02 04:11:30;;;;;;;5.30;2.70;;;9.80;99.90;;;;;;5027763;28;20499;-64
2022/08/02 04:14:00;;;;;;;3.83;1.77;;;9.80;99.90;;;;;;5024903;28;20108;-64
2022/08/02 04:16:38;;;;;;;3.42;1.85;;;9.80;99.90;;;;;;5027747;28;20029;-65
2022/08/02 04:19:06;;;;;;;3.20;2.28;;;9.80;99.90;;;;;;5030434;28;20014;-64
2022/08/02 04:21:35;;;;;;;3.72;2.60;;;9.80;99.90;;;;;;5031474;28;20068;-65
2022/08/02 04:24:03;;;;;;;3.75;2.58;;;9.80;99.90;;;;;;5031163;28;20017;-64
2022/08/02 04:26:30;;;;;;;6.07;2.80;;;9.80;99.90;;;;;;5032334;28;20080;-64
2022/08/02 04:28:57;;;;;;;4.03;2.42;;;9.90;99.90;;;;;;5029744;28;20440;-64
2022/08/02 04:31:22;;;;;;;4.97;2.38;;;9.90;99.90;;;;;;5027085;28;20393;-65
2022/08/02 04:33:49;;;;;;;4.90;2.33;;;9.90;99.90;;;;;;5032036;28;20048;-65
2022/08/02 04:36:15;;;;;;;7.07;2.80;;;9.90;99.90;;;;;;5021673;28;20033;-65
2022/08/02 04:38:41;;;;;;;5.25;3.17;;;9.90;99.90;;;;;;5028203;28;20092;-64
2022/08/02 04:41:07;;;;;;;8.02;2.65;;;9.90;99.90;;;;;;5031709;28;20483;-65
2022/08/02 04:43:33;;;;;;;3.65;2.38;;;9.90;99.90;;;;;;5031204;28;20018;-65
2022/08/02 04:46:01;;;;;;;4.55;2.90;;;9.90;99.90;;;;;;5031923;28;20032;-64
2022/08/02 04:48:27;;;;;;;4.47;2.72;;;9.90;99.90;;;;;;5032151;28;20028;-65
2022/08/02 04:50:53;;;;;;;4.65;2.90;;;9.90;99.90;;;;;;5031321;28;20029;-64
2022/08/02 04:53:18;;;;;;;4.13;2.35;;;9.90;99.90;;;;;;5029694;28;20038;-64
2022/08/02 04:55:44;;;;;;;5.43;2.78;;;9.90;99.90;;;;;;5031778;28;20037;-64
2022/08/02 04:58:10;;;;;;;6.47;3.25;;;9.90;99.90;;;;;;5030485;28;20022;-64
2022/08/02 05:00:36;;;;;;;3.10;2.38;;;9.90;99.90;;;;;;5031344;28;20128;-64
2022/08/02 05:03:01;;;;;;;6.15;2.95;;;9.90;99.90;;;;;;5027984;28;20033;-64
2022/08/02 05:05:27;;;;;;;4.30;2.95;;;9.90;99.90;;;;;;5031740;28;20018;-65
2022/08/02 05:07:53;;;;;;;5.57;3.33;;;9.90;99.90;;;;;;5031747;28;20096;-64
2022/08/02 05:10:19;;;;;;;7.07;3.38;;;9.90;99.90;;;;;;5031012;28;20100;-64
2022/08/02 05:12:45;;;;;;;4.80;2.83;;;9.90;99.90;;;;;;5025960;28;20071;-64
2022/08/02 05:15:11;;;;;;;4.78;3.40;;;9.90;99.90;;;;;;5031617;28;20448;-64
2022/08/02 05:17:37;;;;;;;4.75;2.58;;;10.00;99.90;;;;;;5040831;28;20025;-64
2022/08/02 05:20:05;;;;;;;3.92;2.97;;;10.00;99.90;;;;;;5031352;28;20043;-64
2022/08/02 05:22:30;;;;;;;3.42;2.72;;;10.00;99.90;;;;;;5044936;28;20403;-64
2022/08/02 05:24:56;;;;;;;4.95;2.70;;;10.00;99.90;;;;;;5029034;28;20018;-64
2022/08/02 05:27:21;;;;;;;5.43;2.75;;;10.00;99.90;;;;;;5030723;28;20041;-64
2022/08/02 05:29:50;;;;;;;8.13;2.78;;;10.00;99.90;;;;;;5028614;28;20053;-64
2022/08/02 05:32:16;;;;;;;6.45;3.63;;;10.10;99.90;;;;;;5026715;28;20025;-64
2022/08/02 05:34:42;;;;;;;5.03;3.30;;;10.20;99.90;;;;;;5022547;28;20013;-64
2022/08/02 05:37:07;;;;;;;7.60;4.00;;;10.20;99.90;;;;;;5028981;28;20083;-64
2022/08/02 05:39:33;;;;;;;5.95;2.85;;;10.30;99.90;;;;;;5028793;28;20060;-64
2022/08/02 05:41:59;;;;;;;5.57;3.65;;;10.40;99.90;;;;;;5028017;28;20018;-65
2022/08/02 05:44:24;;;;;;;5.53;3.95;;;10.50;99.90;;;;;;5046472;28;20021;-65
2022/08/02 05:46:50;;;;;;;7.47;3.70;;;10.50;99.90;;;;;;5030127;28;20476;-65
2022/08/02 05:49:15;;;;;;;6.30;3.53;;;10.60;99.90;;;;;;5026960;28;20018;-65
2022/08/02 05:52:08;;;;;;;7.75;3.70;;;10.70;99.90;;;;;;5026064;28;20064;-65
2022/08/02 05:54:39;;;;;;;10.18;3.97;;;10.80;99.90;;;;;;5030050;28;20026;-65
2022/08/02 05:57:11;;;;;;;7.82;4.03;;;10.90;99.90;;;;;;5030484;28;20032;-65
2022/08/02 05:59:49;;;;;;;11.02;4.32;;;11.00;99.90;;;;;;5025555;28;20025;-65
2022/08/02 06:02:41;;;;;;;10.70;5.07;;;11.10;99.90;;;;;;5021227;28;20025;-65
2022/08/02 06:05:12;;;;;;;10.60;4.60;;;11.30;99.90;;;;;;5029510;28;20037;-65
2022/08/02 06:07:41;;;;;;;11.80;5.35;;;11.40;99.90;;;;;;5030696;28;20037;-66
2022/08/02 06:10:08;;;;;;;6.30;3.88;;;11.50;99.90;;;;;;5027905;28;20500;-66
2022/08/02 06:12:47;;;;;;;7.72;4.97;;;11.60;99.90;;;;;;5022329;28;20844;-67
2022/08/02 06:15:14;;;;;;;7.00;4.57;;;11.70;99.90;;;;;;5025978;28;20033;-67
2022/08/02 06:17:40;;;;;;;12.98;4.70;;;11.80;99.90;;;;;;5025802;28;20071;-67
2022/08/02 06:20:07;;;;;;;9.55;4.93;;;12.00;99.90;;;;;;5029021;28;20013;-66
2022/08/02 06:22:34;;;;;;;10.32;5.07;;;12.10;99.90;;;;;;5024230;28;20097;-67
2022/08/02 06:25:01;;;;;;;9.07;4.25;;;12.30;99.90;;;;;;5024517;28;20028;-67
2022/08/02 06:27:27;;;;;;;7.72;3.40;;;12.40;99.90;;;;;;5028784;28;20104;-67
2022/08/02 06:29:55;;;;;;;10.57;4.25;;;12.50;99.90;;;;;;5028204;28;20056;-67
2022/08/02 06:32:21;;;;;;;7.10;3.30;;;12.70;99.90;;;;;;5016414;28;20037;-67
2022/08/02 06:34:46;;;;;;;8.10;3.65;;;12.90;99.90;;;;;;5026324;28;20025;-67
2022/08/02 06:37:18;;;;;;;12.65;4.70;;;13.00;99.90;;;;;;5024581;28;20032;-67
2022/08/02 06:39:46;;;;;;;6.40;3.47;;;13.20;99.90;;;;;;5024453;28;20447;-66
2022/08/02 06:42:16;;;;;;;9.60;3.60;;;13.30;99.90;;;;;;5025297;28;20384;-67
2022/08/02 06:44:42;;;;;;;6.55;3.33;;;13.60;99.90;;;;;;5028614;28;20036;-67
2022/08/02 06:47:08;;;;;;;6.90;2.88;;;13.70;99.90;;;;;;5028335;28;20121;-66
2022/08/02 06:49:33;;;;;;;5.63;2.60;;;13.80;99.90;;;;;;5024642;28;20033;-67
2022/08/02 06:51:59;;;;;;;4.38;2.58;;;14.00;99.90;;;;;;5028527;28;20059;-67
2022/08/02 06:54:25;;;;;;;7.88;3.22;;;14.20;99.90;;;;;;5028886;28;20021;-66
2022/08/02 06:56:50;;;;;;;7.07;3.33;;;14.40;99.90;;;;;;5029522;28;20029;-68
2022/08/02 06:59:16;;;;;;;7.43;2.78;;;14.50;99.90;;;;;;5029492;28;20029;-66
2022/08/02 07:01:42;;;;;;;6.38;3.22;;;14.70;99.90;;;;;;5029582;28;20021;-68
2022/08/02 07:04:08;;;;;;;3.60;2.50;;;14.80;99.90;;;;;;5044995;28;20060;-67
2022/08/02 07:06:34;;;;;;;6.28;2.75;;;15.00;99.90;;;;;;5029844;28;20025;-68
2022/08/02 07:09:00;;;;;;;6.75;2.85;;;15.20;99.90;;;;;;5027238;28;20017;-67
2022/08/02 07:11:25;;;;;;;7.53;4.00;;;15.30;99.90;;;;;;5015367;28;20086;-67
2022/08/02 07:13:51;;;;;;;6.45;3.00;;;15.50;99.90;;;;;;5029502;28;20101;-67
2022/08/02 07:16:17;;;;;;;8.73;2.70;;;15.60;99.90;;;;;;5029455;28;20084;-67
2022/08/02 07:18:42;;;;;;;6.05;2.35;;;15.80;99.90;;;;;;5029205;28;20032;-68
2022/08/02 07:21:08;;;;;;;6.15;2.15;;;16.00;99.90;;;;;;5022875;28;20032;-68
2022/08/02 07:23:34;;;;;;;4.75;3.00;;;16.20;99.90;;;;;;5029064;28;20396;-67
2022/08/02 07:26:00;;;;;;;5.50;2.40;;;16.30;99.90;;;;;;5021057;28;20519;-68
2022/08/02 07:28:25;;;;;;;6.57;2.42;;;16.50;99.90;;;;;;5025165;28;20120;-66
2022/08/02 07:30:51;;;;;;;5.38;2.40;;;16.50;99.90;;;;;;5023079;28;20167;-68
2022/08/02 07:33:17;;;;;;;7.75;2.63;;;16.70;99.90;;;;;;5043434;28;20025;-67
2022/08/02 07:35:42;;;;;;;8.32;1.80;;;16.80;99.90;;;;;;5040161;28;20519;-67
2022/08/02 07:38:08;;;;;;;6.28;2.15;;;17.00;99.90;;;;;;5026559;28;21210;-66
2022/08/02 07:40:35;;;;;;;6.18;1.95;;;17.10;99.90;;;;;;5029071;28;20083;-66
2022/08/02 07:43:00;;;;;;;8.20;1.75;;;17.30;99.90;;;;;;5026677;28;20484;-67
2022/08/02 07:45:26;;;;;;;7.25;2.10;;;17.40;99.90;;;;;;5027610;28;20025;-66
2022/08/02 07:47:52;;;;;;;4.75;1.85;;;17.60;99.90;;;;;;5028849;28;20487;-66
2022/08/02 07:50:19;;;;;;;8.60;2.22;;;17.80;99.90;;;;;;5028578;28;20072;-67
2022/08/02 07:52:46;;;;;;;6.60;2.30;;;18.00;99.90;;;;;;5023724;28;20036;-67
2022/08/02 07:55:13;;;;;;;8.02;2.47;;;18.10;99.90;;;;;;5028567;28;20033;-67
2022/08/02 07:57:40;;;;;;;6.10;2.20;;;18.20;99.90;;;;;;5028513;28;20028;-65
2022/08/02 08:00:08;;;;;;;7.88;2.00;;;18.40;99.90;;;;;;5098964;22;20503;-58
2022/08/02 08:02:34;;;;;;;3.78;1.65;;;18.50;99.90;;;;;;5024894;28;20009;-57
2022/08/02 08:04:59;;;;;;;8.40;1.63;;;18.70;99.90;;;;;;5028224;28;20089;-60
2022/08/02 08:07:25;;;;;;;7.85;2.28;;;18.80;99.90;;;;;;5023810;28;20022;-57
2022/08/02 08:09:51;;;;;;;3.75;1.52;;;18.90;99.90;;;;;;5027588;28;20026;-59
2022/08/02 08:12:16;;;;;;;4.30;1.95;;;19.00;99.90;;;;;;5027818;28;20053;-60
2022/08/02 08:14:42;;;;;;;6.00;1.63;;;19.10;99.90;;;;;;5028499;28;20056;-60
2022/08/02 08:17:08;;;;;;;6.38;1.70;;;19.30;99.90;;;;;;5028404;28;20036;-55
2022/08/02 08:19:34;;;;;;;5.32;1.60;;;19.40;99.90;;;;;;5028389;28;20029;-55
2022/08/02 08:22:00;;;;;;;2.13;1.23;;;19.50;99.90;;;;;;5028073;28;20516;-57
2022/08/02 08:24:26;;;;;;;3.22;1.38;;;19.70;99.90;;;;;;5009907;28;20026;-61
2022/08/02 08:26:52;;;;;;;4.28;1.33;;;19.90;99.90;;;;;;5028387;28;20085;-59
2022/08/02 08:29:18;;;;;;;6.43;1.70;;;20.10;99.90;;;;;;5027903;28;20492;-60
2022/08/02 08:31:44;;;;;;;2.88;1.65;;;20.20;99.90;;;;;;5027142;28;20021;-59
2022/08/02 08:34:09;;;;;;;3.90;1.70;;;20.30;99.90;;;;;;5025406;28;20036;-60
2022/08/02 08:36:35;;;;;;;6.70;1.60;;;20.40;99.90;;;;;;5021342;28;20026;-59
2022/08/02 08:39:01;;;;;;;4.65;1.85;;;20.50;99.90;;;;;;5026456;28;20021;-61
2022/08/02 08:41:26;;;;;;;4.43;1.40;;;20.50;99.90;;;;;;5027602;28;20392;-60
2022/08/02 08:43:52;;;;;;;3.35;1.15;;;20.70;99.90;;;;;;5027678;28;20520;-60
2022/08/02 08:46:26;;;;;;;1.83;0.90;;;20.90;99.90;;;;;;5027817;28;20025;-60
2022/08/02 08:48:55;;;;;;;6.95;1.52;;;21.10;98.70;;;;;;5026832;28;20033;-60
2022/08/02 08:51:23;;;;;;;3.83;1.88;;;21.20;98.20;;;;;;5023299;28;20051;-62
2022/08/02 08:53:51;;;;;;;6.47;1.42;;;21.30;97.80;;;;;;5026257;28;20044;-59
2022/08/02 08:56:17;;;;;;;4.15;1.80;;;21.40;99.80;;;;;;5020688;28;20053;-60
2022/08/02 08:58:46;;;;;;;5.07;2.00;;;21.50;99.00;;;;;;5028074;28;20096;-62
2022/08/02 09:01:13;;;;;;;4.55;1.58;;;21.60;96.80;;;;;;5023580;28;20030;-63
2022/08/02 09:03:38;;;;;;;3.83;1.40;;;21.70;97.50;;;;;;5028154;28;20028;-61
2022/08/02 09:06:04;;;;;;;2.90;1.40;;;21.80;97.20;;;;;;5031739;28;20022;-63
2022/08/02 09:08:30;;;;;;;8.48;1.60;;;21.70;98.00;;;;;;5030601;28;20033;-61
2022/08/02 09:10:56;;;;;;;5.13;1.55;;;21.90;97.10;;;;;;5031342;28;20109;-61
2022/08/02 09:13:30;;;;;;;4.28;1.55;;;22.10;96.50;;;;;;5030951;28;20100;-61
2022/08/02 09:15:58;;;;;;;2.47;1.60;;;22.20;95.50;;;;;;5013348;28;20079;-59
2022/08/02 09:18:44;;;;;;;4.57;1.23;;;22.30;96.10;;;;;;5031531;28;20026;-61
2022/08/02 09:21:10;;;;;;;1.77;1.00;;;22.30;96.20;;;;;;5022342;28;20049;-63
2022/08/02 09:23:37;;;;;;;4.13;1.33;;;22.30;95.60;;;;;;5030651;28;20026;-62
2022/08/02 09:26:06;;;;;;;4.55;1.60;;;22.40;96.60;;;;;;5005118;28;20040;-59
2022/08/02 09:28:35;;;;;;;4.03;1.05;;;22.50;95.00;;;;;;5031730;28;20013;-59
2022/08/02 09:31:14;;;;;;;3.72;1.50;;;22.60;95.10;;;;;;5022555;28;20079;-60
2022/08/02 09:33:41;;;;;;;3.38;1.20;;;22.60;94.50;;;;;;5030880;28;20030;-59
2022/08/02 09:36:12;;;;;;;2.97;1.30;;;22.60;94.40;;;;;;5028873;28;20064;-63
2022/08/02 09:38:39;;;;;;;3.35;1.40;;;22.40;93.20;;;;;;5024245;28;20037;-59
2022/08/02 09:41:18;;;;;;;3.63;1.40;;;22.50;93.80;;;;;;5030259;28;20014;-62
2022/08/02 09:43:44;;;;;;;4.25;1.45;;;22.50;92.40;;;;;;5030958;28;20037;-56
2022/08/02 09:46:11;;;;;;;6.32;1.80;;;22.40;92.80;;;;;;5030935;28;20033;-60
2022/08/02 09:49:00;;;;;;;3.33;1.17;;;22.40;93.60;;;;;;5029735;28;20083;-62
2022/08/02 09:51:35;;;;;;;4.85;1.13;;;22.40;93.70;;;;;;5030581;28;20049;-60
2022/08/02 09:54:05;;;;;;;3.55;1.50;;;22.40;93.10;;;;;;5022892;28;20080;-62
2022/08/02 09:56:44;;;;;;;3.08;1.48;;;22.40;93.10;;;;;;5029953;28;20025;-63
2022/08/02 09:59:10;;;;;;;3.80;1.05;;;22.50;93.60;;;;;;5030744;28;20428;-60
2022/08/02 10:01:37;;;;;;;2.65;1.02;;;22.50;92.80;;;;;;5029307;28;20033;-61
2022/08/02 10:04:05;;;;;;;6.65;1.30;;;22.50;92.20;;;;;;5030796;28;20510;-60
2022/08/02 10:06:31;;;;;;;4.45;1.60;;;22.50;92.90;;;;;;5030828;28;20033;-62
2022/08/02 10:08:57;;;;;;;2.20;1.25;;;22.50;95.60;;;;;;5030443;28;20075;-62
2022/08/02 10:11:26;;;;;;;3.13;1.10;;;22.50;92.60;;;;;;5029685;28;20030;-63
2022/08/02 10:13:53;;;;;;;3.42;1.65;;;22.60;93.00;;;;;;5030702;28;20075;-64
2022/08/02 10:16:22;;;;;;;5.05;1.13;;;22.60;92.90;;;;;;5029084;28;20036;-60
2022/08/02 10:18:55;;;;;;;2.10;0.80;;;22.50;91.80;;;;;;5030589;28;20080;-62
2022/08/02 10:21:43;;;;;;;4.10;1.48;;;22.50;90.00;;;;;;5027214;28;20033;-64
2022/08/02 10:24:11;;;;;;;4.82;2.22;;;22.40;90.90;;;;;;5030343;28;20017;-61
2022/08/02 10:26:42;;;;;;;2.72;0.95;;;22.40;91.50;;;;;;5030422;28;20105;-61
2022/08/02 10:29:09;;;;;;;4.13;0.90;;;22.40;90.20;;;;;;5012423;28;20033;-62
2022/08/02 10:31:43;;;;;;;4.38;1.27;;;22.30;90.40;;;;;;5028996;28;20037;-61
2022/08/02 10:34:16;;;;;;;1.98;1.17;;;22.30;91.30;;;;;;5029158;28;21397;-63
2022/08/02 10:36:44;;;;;;;3.22;1.30;;;22.30;90.70;;;;;;5028954;28;20156;-63
2022/08/02 10:39:10;;;;;;;3.70;1.25;;;22.30;90.90;;;;;;5028596;28;20104;-59
2022/08/02 10:41:39;;;;;;;1.63;0.90;;;22.40;91.60;;;;;;5028613;28;20025;-65
2022/08/02 10:44:04;;;;;;;2.28;1.00;;;22.50;91.80;;;;;;5029779;28;20728;-62
2022/08/02 10:46:35;;;;;;;4.15;1.13;;;22.50;90.00;;;;;;5026435;28;20029;-61
2022/08/02 10:49:11;;;;;;;1.88;0.90;;;22.50;87.70;;;;;;5025148;28;20025;-62
2022/08/02 10:51:55;;;;;;;4.50;1.15;;;22.40;88.90;;;;;;5029148;28;20108;-64
2022/08/02 10:54:24;;;;;;;8.40;1.15;;;22.50;88.10;;;;;;5028827;28;20040;-62
2022/08/02 10:56:51;;;;;;;3.00;1.02;;;22.40;89.80;;;;;;5029917;28;20025;-63
2022/08/02 10:59:34;;;;;;;2.78;0.90;;;22.40;91.20;;;;;;5027687;28;20022;-62
2022/08/02 11:02:02;;;;;;;3.05;1.35;;;22.50;92.00;;;;;;5026712;28;20676;-63
2022/08/02 11:04:50;;;;;;;1.80;0.90;;;22.50;90.70;;;;;;5021013;28;20439;-63
2022/08/02 11:07:30;;;;;;;2.80;1.15;;;22.50;90.00;;;;;;5026463;28;20025;-64
2022/08/02 11:09:58;;;;;;;2.70;1.20;;;22.50;90.50;;;;;;5027293;28;20104;-62
2022/08/02 11:12:23;;;;;;;2.10;0.88;;;22.60;91.00;;;;;;5028470;28;20518;-63
2022/08/02 11:15:04;;;;;;;2.15;1.08;;;22.60;89.80;;;;;;5029231;28;20029;-62
2022/08/02 11:17:58;;;;;;;4.63;1.60;;;22.60;91.00;;;;;;5010937;28;20527;-63
2022/08/02 11:20:27;;;;;;;2.55;1.10;;;22.60;90.60;;;;;;5022537;28;20613;-62
2022/08/02 11:22:54;;;;;;;3.60;1.42;;;22.70;90.40;;;;;;5028295;28;20033;-64
2022/08/02 11:25:22;;;;;;;2.50;1.10;;;22.70;90.70;;;;;;5029352;28;20032;-62
2022/08/02 11:27:56;;;;;;;2.28;1.08;;;22.80;91.40;;;;;;5029105;28;20029;-63
2022/08/02 11:30:24;;;;;;;2.30;1.02;;;22.80;91.00;;;;;;5026089;28;20041;-64
2022/08/02 11:32:53;;;;;;;2.97;0.88;;;22.80;90.60;;;;;;5028055;28;20033;-63
2022/08/02 11:35:19;;;;;;;1.90;1.00;;;22.90;90.40;;;;;;5029081;28;20025;-64
2022/08/02 11:37:44;;;;;;;3.83;1.10;;;23.00;90.10;;;;;;5028573;28;20032;-63
2022/08/02 11:40:14;;;;;;;2.13;1.02;;;23.00;90.70;;;;;;5010402;28;20388;-62
2022/08/02 11:42:43;;;;;;;3.10;1.25;;;23.10;88.30;;;;;;5028497;28;20025;-65
2022/08/02 11:45:10;;;;;;;4.07;1.15;;;23.20;90.60;;;;;;5028995;28;21383;-62
2022/08/02 11:47:47;;;;;;;2.25;1.10;;;23.20;90.00;;;;;;5028478;28;20054;-61
2022/08/02 11:50:13;;;;;;;2.35;0.98;;;23.30;89.60;;;;;;5028719;28;20376;-60
2022/08/02 11:52:39;;;;;;;2.60;1.10;;;23.30;89.90;;;;;;5009644;28;20030;-61
2022/08/02 11:55:09;;;;;;;2.83;0.75;;;23.40;89.70;;;;;;5011090;28;20032;-62
2022/08/02 11:57:35;;;;;;;2.08;1.08;;;23.40;90.00;;;;;;5026589;28;20064;-60
2022/08/02 12:00:04;;;;;;;2.15;0.93;;;23.40;89.90;;;;;;5028415;28;20025;-62
2022/08/02 12:02:31;;;;;;;2.42;1.27;;;23.40;89.10;;;;;;5010389;28;20026;-62
2022/08/02 12:04:59;;;;;;;3.95;1.48;;;23.50;89.00;;;;;;5028768;28;20060;-63
2022/08/02 12:07:37;;;;;;;1.35;0.90;;;23.40;87.90;;;;;;5028089;28;20028;-63
2022/08/02 12:10:12;;;;;;;4.40;1.50;;;23.50;90.20;;;;;;5028735;28;20392;-61
2022/08/02 12:12:55;;;;;;;2.15;1.08;;;23.50;90.00;;;;;;5028177;28;20396;-63
2022/08/02 12:15:33;;;;;;;2.47;1.42;;;23.50;89.50;;;;;;5020928;28;20018;-63
2022/08/02 12:20:43;;;;;;;2.95;1.02;;;23.70;89.40;;;;;;5028218;28;20749;-64
2022/08/02 12:23:09;;;;;;;2.63;1.52;;;23.80;90.20;;;;;;5027759;28;20045;-64
2022/08/02 12:25:34;;;;;;;2.17;0.90;;;23.90;89.80;;;;;;5028495;28;20025;-64
2022/08/02 12:28:19;;;;;;;3.75;1.77;;;24.00;90.50;;;;;;5027818;28;20108;-63
2022/08/02 12:30:59;;;;;;;1.50;0.88;;;24.00;87.80;;;;;;5024405;28;20018;-63
2022/08/02 12:33:27;;;;;;;2.85;1.45;;;24.10;87.90;;;;;;5026473;28;20053;-63
2022/08/02 12:35:53;;;;;;;1.63;0.93;;;24.20;89.00;;;;;;5026828;28;20037;-63
2022/08/02 12:38:19;;;;;;;2.00;1.13;;;24.20;89.50;;;;;;5028609;28;20045;-65
2022/08/02 12:40:45;;;;;;;3.80;1.45;;;24.30;87.60;;;;;;5013815;28;20062;-62
2022/08/02 12:43:22;;;;;;;4.68;1.20;;;24.40;87.40;;;;;;5030890;28;20436;-62
2022/08/02 12:45:52;;;;;;;4.30;1.17;;;24.40;88.30;;;;;;5032308;28;20021;-64
2022/08/02 12:48:35;;;;;;;1.65;0.90;;;24.40;84.50;;;;;;5024615;28;20063;-62
2022/08/02 12:51:23;;;;;;;1.42;1.10;;;24.60;86.00;;;;;;5011594;28;20087;-64
2022/08/02 12:53:50;;;;;;;2.63;1.25;;;24.70;85.80;;;;;;5014041;28;20088;-62
2022/08/02 12:56:35;;;;;;;3.85;1.35;;;24.70;86.40;;;;;;5031523;28;20417;-63
2022/08/02 12:59:02;;;;;;;2.38;1.33;;;24.80;86.30;;;;;;5031439;28;20091;-63